Time;durP1;ratioP1;P1;durP2;ratioP2;P2;SDS_P1;SDS_P2;PMS_P1;PMS_P2;Temp;Humidity;BMP_temperature;BMP_pressure;BME280_temperature;BME280_humidity;BME280_pressure;Samples;Min_cycle;Max_cycle;Signal;HPM_P1;HPM_P2
2024/03/16 00:01:48;;;;;;;30.38;16.38;;;;;;;;;;5030778;28;20128;-64
2024/03/16 00:04:13;;;;;;;32.15;16.23;;;;;;;;;;5030856;28;20517;-62
2024/03/16 00:06:39;;;;;;;29.42;15.27;;;;;;;;;;5032175;28;20034;-63
2024/03/16 00:09:05;;;;;;;30.80;15.93;;;;;;;;;;5031906;28;20484;-64
2024/03/16 00:11:31;;;;;;;37.20;16.80;;;;;;;;;;5032113;28;20064;-62
2024/03/16 00:13:57;;;;;;;34.92;15.82;;;;;;;;;;5031860;28;20069;-62
2024/03/16 00:16:23;;;;;;;36.20;17.33;;;;;;;;;;5030822;28;20056;-63
2024/03/16 00:18:48;;;;;;;32.10;15.85;;;;;;;;;;5031894;28;20064;-61
2024/03/16 00:21:14;;;;;;;32.50;16.27;;;;;;;;;;5031768;28;20501;-64
2024/03/16 00:23:39;;;;;;;32.17;16.55;;;;;;;;;;5031683;28;20057;-63
2024/03/16 00:26:05;;;;;;;28.90;16.27;;;;;;;;;;5032351;28;20056;-63
2024/03/16 00:28:31;;;;;;;34.65;17.35;;;;;;;;;;5030612;28;20045;-62
2024/03/16 00:30:56;;;;;;;33.10;17.00;;;;;;;;;;5031722;28;20112;-64
2024/03/16 00:33:22;;;;;;;30.63;16.23;;;;;;;;;;5030150;28;20403;-61
2024/03/16 00:35:47;;;;;;;28.40;16.30;;;;;;;;;;5031744;28;20044;-64
2024/03/16 00:38:14;;;;;;;32.53;16.95;;;;;;;;;;5030340;28;20029;-63
2024/03/16 00:40:40;;;;;;;31.73;16.42;;;;;;;;;;5031438;28;20041;-63
2024/03/16 00:43:06;;;;;;;34.00;17.38;;;;;;;;;;5030208;28;20041;-62
2024/03/16 00:45:32;;;;;;;33.67;18.27;;;;;;;;;;5030297;28;20034;-63
2024/03/16 00:47:57;;;;;;;36.80;17.83;;;;;;;;;;5031245;28;20029;-63
2024/03/16 00:50:23;;;;;;;34.47;17.50;;;;;;;;;;5031649;28;20073;-62
2024/03/16 00:52:48;;;;;;;31.15;16.27;;;;;;;;;;5031207;28;20033;-62
2024/03/16 00:55:14;;;;;;;29.23;16.48;;;;;;;;;;5031755;28;20048;-62
2024/03/16 00:57:39;;;;;;;37.80;17.52;;;;;;;;;;5031115;28;20499;-62
2024/03/16 01:00:08;;;;;;;37.13;17.98;;;;;;;;;;5031689;28;20047;-63
2024/03/16 01:02:33;;;;;;;34.40;18.08;;;;;;;;;;5031272;28;20056;-63
2024/03/16 01:04:59;;;;;;;36.08;17.20;;;;;;;;;;5031592;28;20037;-62
2024/03/16 01:07:25;;;;;;;33.67;18.80;;;;;;;;;;5029839;28;20044;-62
2024/03/16 01:09:50;;;;;;;34.47;17.80;;;;;;;;;;5031410;28;20398;-63
2024/03/16 01:12:16;;;;;;;39.25;18.48;;;;;;;;;;5031110;28;20537;-61
2024/03/16 01:14:41;;;;;;;37.20;19.00;;;;;;;;;;5031072;28;20045;-63
2024/03/16 01:17:07;;;;;;;38.38;19.25;;;;;;;;;;5031253;28;20063;-63
2024/03/16 01:19:35;;;;;;;34.00;17.70;;;;;;;;;;5031257;28;20033;-62
2024/03/16 01:22:01;;;;;;;40.95;18.85;;;;;;;;;;5031214;28;20038;-63
2024/03/16 01:24:26;;;;;;;34.40;17.70;;;;;;;;;;5031166;28;20037;-62
2024/03/16 01:26:53;;;;;;;37.92;17.85;;;;;;;;;;5029671;28;20124;-63
2024/03/16 01:29:18;;;;;;;34.47;17.17;;;;;;;;;;5029504;28;20079;-63
2024/03/16 01:31:44;;;;;;;35.83;18.98;;;;;;;;;;5013342;28;20041;-62
2024/03/16 01:34:10;;;;;;;41.17;19.45;;;;;;;;;;5013375;28;20037;-62
2024/03/16 01:36:35;;;;;;;38.00;18.52;;;;;;;;;;5029639;28;20045;-64
2024/03/16 01:39:01;;;;;;;42.97;20.23;;;;;;;;;;5031053;28;20049;-62
2024/03/16 01:41:26;;;;;;;36.95;17.77;;;;;;;;;;5034637;28;20056;-62
2024/03/16 01:43:52;;;;;;;35.05;18.17;;;;;;;;;;5034694;28;20606;-63
2024/03/16 01:46:18;;;;;;;38.45;18.75;;;;;;;;;;5034784;28;20507;-63
2024/03/16 01:48:43;;;;;;;32.47;18.65;;;;;;;;;;5034780;28;20115;-62
2024/03/16 01:51:09;;;;;;;38.35;18.45;;;;;;;;;;5034806;28;20067;-63
2024/03/16 01:53:35;;;;;;;39.80;19.40;;;;;;;;;;5034652;28;20514;-62
2024/03/16 01:56:02;;;;;;;36.03;18.15;;;;;;;;;;5034959;28;20402;-63
2024/03/16 01:58:27;;;;;;;40.85;19.23;;;;;;;;;;5000385;28;20052;-62
2024/03/16 02:00:53;;;;;;;43.45;19.55;;;;;;;;;;5033153;28;20488;-61
2024/03/16 02:03:18;;;;;;;40.35;19.77;;;;;;;;;;5032852;28;20502;-63
2024/03/16 02:05:46;;;;;;;37.60;18.48;;;;;;;;;;5034582;28;20037;-61
2024/03/16 02:08:11;;;;;;;39.92;18.77;;;;;;;;;;5034358;28;20040;-62
2024/03/16 02:10:37;;;;;;;37.67;19.00;;;;;;;;;;5033185;28;20045;-63
2024/03/16 02:13:03;;;;;;;36.00;18.33;;;;;;;;;;5032812;28;20029;-62
2024/03/16 02:15:28;;;;;;;36.60;18.25;;;;;;;;;;5034489;28;20039;-64
2024/03/16 02:17:54;;;;;;;37.22;19.50;;;;;;;;;;5033741;28;20059;-63
2024/03/16 02:20:19;;;;;;;42.78;19.80;;;;;;;;;;5034450;28;20117;-61
2024/03/16 02:22:46;;;;;;;37.17;19.73;;;;;;;;;;5034084;28;20515;-62
2024/03/16 02:25:12;;;;;;;42.15;19.20;;;;;;;;;;5016689;28;20057;-63
2024/03/16 02:27:39;;;;;;;42.45;20.02;;;;;;;;;;5034039;28;20445;-63
2024/03/16 02:30:10;;;;;;;37.22;19.35;;;;;;;;;;5033836;28;20041;-63
2024/03/16 02:32:37;;;;;;;37.78;18.52;;;;;;;;;;5033937;28;20050;-62
2024/03/16 02:35:07;;;;;;;41.22;20.10;;;;;;;;;;5034179;28;20514;-62
2024/03/16 02:37:33;;;;;;;41.33;20.58;;;;;;;;;;5033977;28;20038;-62
2024/03/16 02:39:59;;;;;;;42.63;20.25;;;;;;;;;;5032636;28;20037;-62
2024/03/16 02:42:25;;;;;;;45.40;19.92;;;;;;;;;;5033464;28;20123;-63
2024/03/16 02:44:52;;;;;;;44.90;20.63;;;;;;;;;;5032482;28;20041;-63
2024/03/16 02:47:18;;;;;;;44.83;20.83;;;;;;;;;;5033378;28;20503;-62
2024/03/16 02:49:44;;;;;;;40.08;20.33;;;;;;;;;;5033380;28;20045;-63
2024/03/16 02:52:10;;;;;;;44.63;20.95;;;;;;;;;;5032293;28;20084;-64
2024/03/16 02:54:36;;;;;;;37.47;20.52;;;;;;;;;;5033614;28;20064;-62
2024/03/16 02:57:01;;;;;;;41.08;21.08;;;;;;;;;;5033623;28;20446;-65
2024/03/16 02:59:29;;;;;;;46.40;21.70;;;;;;;;;;5032077;28;20041;-62
2024/03/16 03:01:57;;;;;;;40.28;20.88;;;;;;;;;;5032014;28;20103;-62
2024/03/16 03:04:23;;;;;;;45.17;20.85;;;;;;;;;;5015827;28;20171;-63
2024/03/16 03:06:49;;;;;;;44.45;20.92;;;;;;;;;;5033378;28;20132;-63
2024/03/16 03:09:17;;;;;;;46.45;21.67;;;;;;;;;;5031971;28;20144;-63
2024/03/16 03:11:44;;;;;;;45.92;21.52;;;;;;;;;;5033226;28;20029;-63
2024/03/16 03:14:10;;;;;;;45.47;21.80;;;;;;;;;;5033163;28;20037;-63
2024/03/16 03:16:36;;;;;;;48.15;21.80;;;;;;;;;;5015180;28;20060;-63
2024/03/16 03:19:02;;;;;;;42.63;20.83;;;;;;;;;;5031824;28;20053;-63
2024/03/16 03:21:29;;;;;;;43.30;20.73;;;;;;;;;;5033154;28;20380;-64
2024/03/16 03:23:54;;;;;;;46.58;22.10;;;;;;;;;;5032875;28;20056;-61
2024/03/16 03:26:22;;;;;;;41.90;20.63;;;;;;;;;;5032987;28;20037;-63
2024/03/16 03:28:49;;;;;;;40.63;21.38;;;;;;;;;;5032507;28;20474;-61
2024/03/16 03:31:14;;;;;;;42.85;20.48;;;;;;;;;;5033026;28;20041;-64
2024/03/16 03:33:40;;;;;;;44.15;22.17;;;;;;;;;;5031311;28;20038;-61
2024/03/16 03:36:06;;;;;;;42.83;22.20;;;;;;;;;;5031375;28;20141;-61
2024/03/16 03:38:31;;;;;;;40.30;20.30;;;;;;;;;;5032649;28;20041;-61
2024/03/16 03:40:57;;;;;;;47.95;22.10;;;;;;;;;;5032337;28;20553;-61
2024/03/16 03:43:24;;;;;;;43.88;20.30;;;;;;;;;;5031348;28;20517;-62
2024/03/16 03:45:50;;;;;;;44.70;22.05;;;;;;;;;;5032237;28;20549;-62
2024/03/16 03:50:48;;;;;;;41.45;19.17;;;;;;;;;;5031390;28;20029;-62
2024/03/16 03:53:15;;;;;;;37.53;19.80;;;;;;;;;;5032167;28;20044;-63
2024/03/16 03:55:41;;;;;;;45.58;22.13;;;;;;;;;;5031007;28;20067;-63
2024/03/16 03:58:07;;;;;;;44.83;20.95;;;;;;;;;;5031079;28;20512;-62
2024/03/16 04:00:33;;;;;;;42.78;20.02;;;;;;;;;;5032515;28;20280;-63
2024/03/16 04:02:59;;;;;;;44.55;20.40;;;;;;;;;;5030811;28;20184;-61
2024/03/16 04:05:26;;;;;;;43.67;19.95;;;;;;;;;;5032608;28;20381;-61
2024/03/16 04:07:55;;;;;;;46.20;19.90;;;;;;;;;;5032146;28;20406;-62
2024/03/16 04:10:21;;;;;;;40.58;19.50;;;;;;;;;;5032422;28;20568;-63
2024/03/16 04:12:47;;;;;;;46.55;19.40;;;;;;;;;;5032168;28;20037;-62
2024/03/16 04:15:13;;;;;;;43.08;19.90;;;;;;;;;;5030837;28;20408;-63
2024/03/16 04:17:39;;;;;;;39.42;18.75;;;;;;;;;;5031723;28;20602;-63
2024/03/16 04:20:10;;;;;;;53.05;19.73;;;;;;;;;;5031777;28;20271;-62
2024/03/16 04:22:36;;;;;;;39.03;18.88;;;;;;;;;;5031570;28;20049;-61
2024/03/16 04:25:08;;;;;;;36.13;17.98;;;;;;;;;;5031913;28;20495;-63
2024/03/16 04:27:34;;;;;;;39.72;18.00;;;;;;;;;;5031497;28;20120;-61
2024/03/16 04:30:00;;;;;;;37.45;18.73;;;;;;;;;;5031993;28;20121;-60
2024/03/16 04:32:27;;;;;;;47.45;20.35;;;;;;;;;;5031805;28;20606;-63
2024/03/16 04:34:52;;;;;;;38.10;18.45;;;;;;;;;;5031882;28;20125;-63
2024/03/16 04:37:19;;;;;;;44.00;20.27;;;;;;;;;;5031430;28;20506;-63
2024/03/16 04:39:44;;;;;;;42.55;19.83;;;;;;;;;;5031817;28;20037;-62
2024/03/16 04:42:10;;;;;;;42.33;19.70;;;;;;;;;;5033178;28;20404;-61
2024/03/16 04:44:36;;;;;;;39.50;19.52;;;;;;;;;;5031582;28;20041;-62
2024/03/16 04:47:03;;;;;;;39.20;19.08;;;;;;;;;;5031414;28;20041;-64
2024/03/16 04:49:29;;;;;;;42.97;19.92;;;;;;;;;;5029993;28;20041;-63
2024/03/16 04:51:55;;;;;;;37.65;18.55;;;;;;;;;;5030329;28;20408;-61
2024/03/16 04:54:20;;;;;;;41.45;18.65;;;;;;;;;;5028085;28;20420;-62
2024/03/16 04:56:46;;;;;;;34.38;18.23;;;;;;;;;;5012708;28;20041;-63
2024/03/16 04:59:11;;;;;;;38.05;18.95;;;;;;;;;;5031441;28;20034;-62
2024/03/16 05:01:37;;;;;;;38.83;18.10;;;;;;;;;;5013510;28;20025;-64
2024/03/16 05:04:03;;;;;;;36.85;18.13;;;;;;;;;;5029846;28;20072;-63
2024/03/16 05:06:31;;;;;;;37.88;18.35;;;;;;;;;;5013573;28;20495;-65
2024/03/16 05:08:57;;;;;;;37.85;17.80;;;;;;;;;;5031308;28;20045;-63
2024/03/16 05:11:23;;;;;;;36.55;18.10;;;;;;;;;;5031045;28;20045;-64
2024/03/16 05:13:49;;;;;;;33.80;18.25;;;;;;;;;;5031238;28;20544;-62
2024/03/16 05:16:15;;;;;;;33.88;18.88;;;;;;;;;;5035057;28;20119;-63
2024/03/16 05:18:41;;;;;;;34.92;17.65;;;;;;;;;;5035122;28;20045;-63
2024/03/16 05:21:07;;;;;;;35.08;17.63;;;;;;;;;;5034168;28;20038;-63
2024/03/16 05:23:33;;;;;;;32.97;17.90;;;;;;;;;;5035015;28;20049;-63
2024/03/16 05:26:01;;;;;;;36.63;17.58;;;;;;;;;;5035054;28;20038;-62
2024/03/16 05:28:27;;;;;;;34.20;17.17;;;;;;;;;;5033742;28;20411;-60
2024/03/16 05:30:53;;;;;;;33.08;17.70;;;;;;;;;;5033363;28;20077;-63
2024/03/16 05:33:18;;;;;;;39.35;18.80;;;;;;;;;;5033448;28;20041;-62
2024/03/16 05:35:44;;;;;;;42.55;18.02;;;;;;;;;;5016645;28;20541;-63
2024/03/16 05:38:10;;;;;;;39.92;18.73;;;;;;;;;;5034610;28;20041;-62
2024/03/16 05:40:41;;;;;;;34.65;17.27;;;;;;;;;;5034731;28;20091;-64
2024/03/16 05:43:07;;;;;;;33.40;18.13;;;;;;;;;;5034550;28;20076;-63
2024/03/16 05:45:32;;;;;;;42.47;19.63;;;;;;;;;;5033468;28;20056;-62
2024/03/16 05:47:58;;;;;;;34.55;17.83;;;;;;;;;;5030816;28;20037;-64
2024/03/16 05:50:23;;;;;;;37.72;18.00;;;;;;;;;;5032657;28;20091;-62
2024/03/16 05:52:49;;;;;;;35.65;17.85;;;;;;;;;;5030288;28;20025;-61
2024/03/16 05:55:15;;;;;;;34.78;17.42;;;;;;;;;;5029370;28;20048;-63
2024/03/16 05:57:41;;;;;;;41.55;17.45;;;;;;;;;;5030496;28;20124;-62
2024/03/16 06:00:13;;;;;;;37.45;17.65;;;;;;;;;;5031250;28;20129;-63
2024/03/16 06:02:39;;;;;;;35.70;17.13;;;;;;;;;;5031632;28;20045;-61
2024/03/16 06:05:05;;;;;;;36.35;18.95;;;;;;;;;;5034649;28;20417;-64
2024/03/16 06:07:31;;;;;;;37.10;18.58;;;;;;;;;;5032744;28;20048;-63
2024/03/16 06:09:56;;;;;;;37.08;17.92;;;;;;;;;;5032984;28;20401;-62
2024/03/16 06:12:23;;;;;;;35.28;18.70;;;;;;;;;;5034004;28;20029;-63
2024/03/16 06:14:49;;;;;;;36.30;17.90;;;;;;;;;;5034291;28;20041;-63
2024/03/16 06:17:16;;;;;;;35.42;18.52;;;;;;;;;;5034307;28;20184;-62
2024/03/16 06:19:42;;;;;;;35.13;17.60;;;;;;;;;;5032885;28;20037;-62
2024/03/16 06:22:08;;;;;;;33.15;17.73;;;;;;;;;;5032992;28;20033;-64
2024/03/16 06:24:34;;;;;;;35.50;17.85;;;;;;;;;;5034305;28;20033;-62
2024/03/16 06:27:05;;;;;;;33.78;18.27;;;;;;;;;;5033752;28;20026;-62
2024/03/16 06:29:31;;;;;;;34.50;18.13;;;;;;;;;;5033870;28;20487;-62
2024/03/16 06:32:05;;;;;;;36.78;18.75;;;;;;;;;;5033734;28;20038;-60
2024/03/16 06:34:33;;;;;;;36.15;18.17;;;;;;;;;;5034030;28;20044;-63
2024/03/16 06:36:59;;;;;;;37.13;17.80;;;;;;;;;;5032721;28;20041;-62
2024/03/16 06:39:26;;;;;;;34.97;18.55;;;;;;;;;;5034157;28;20520;-61
2024/03/16 06:41:51;;;;;;;31.73;17.85;;;;;;;;;;5033605;28;20149;-65
2024/03/16 06:44:17;;;;;;;36.45;18.52;;;;;;;;;;5033848;28;20123;-63
2024/03/16 06:46:43;;;;;;;37.75;18.33;;;;;;;;;;5034070;28;20454;-65
2024/03/16 06:49:09;;;;;;;35.38;18.38;;;;;;;;;;5032029;28;20517;-68
2024/03/16 06:51:34;;;;;;;36.40;18.38;;;;;;;;;;5033265;28;20033;-62
2024/03/16 06:54:00;;;;;;;35.38;17.15;;;;;;;;;;5033242;28;20111;-60
2024/03/16 06:56:26;;;;;;;31.77;16.98;;;;;;;;;;5015417;28;20123;-66
2024/03/16 06:58:52;;;;;;;35.05;19.38;;;;;;;;;;5032051;28;20087;-68
2024/03/16 07:01:18;;;;;;;37.75;18.42;;;;;;;;;;5032064;28;20026;-66
2024/03/16 07:03:44;;;;;;;40.80;18.30;;;;;;;;;;5033067;28;20060;-67
2024/03/16 07:06:09;;;;;;;32.92;16.90;;;;;;;;;;5033570;28;20112;-66
2024/03/16 07:08:38;;;;;;;38.05;18.40;;;;;;;;;;5030681;28;20045;-71
2024/03/16 07:11:04;;;;;;;32.15;17.38;;;;;;;;;;5031801;28;20078;-68
2024/03/16 07:13:31;;;;;;;32.53;16.60;;;;;;;;;;5032934;28;20048;-68
2024/03/16 07:15:56;;;;;;;32.90;17.73;;;;;;;;;;4999372;28;20619;-66
2024/03/16 07:18:22;;;;;;;33.58;18.63;;;;;;;;;;5013108;28;20160;-68
2024/03/16 07:20:47;;;;;;;38.30;17.95;;;;;;;;;;5013189;28;20125;-66
2024/03/16 07:23:13;;;;;;;36.42;17.75;;;;;;;;;;5028361;28;20049;-67
2024/03/16 07:25:41;;;;;;;44.80;19.25;;;;;;;;;;5011894;28;20113;-72
2024/03/16 07:28:07;;;;;;;31.70;17.90;;;;;;;;;;5021709;28;20083;-71
2024/03/16 07:30:35;;;;;;;38.25;18.40;;;;;;;;;;4998373;28;20128;-75
2024/03/16 07:33:02;;;;;;;36.30;18.58;;;;;;;;;;5064647;28;20025;-69
2024/03/16 07:35:28;;;;;;;38.05;18.65;;;;;;;;;;5031986;28;20508;-67
2024/03/16 07:37:55;;;;;;;33.28;18.90;;;;;;;;;;5031699;28;20120;-64
2024/03/16 07:40:21;;;;;;;38.53;19.38;;;;;;;;;;5033016;28;20041;-63
2024/03/16 07:42:48;;;;;;;35.45;18.60;;;;;;;;;;5023112;28;20649;-67
2024/03/16 07:45:15;;;;;;;34.00;17.52;;;;;;;;;;5013242;28;20046;-67
2024/03/16 07:47:41;;;;;;;30.95;17.63;;;;;;;;;;5026407;28;20036;-63
2024/03/16 07:50:07;;;;;;;35.67;18.17;;;;;;;;;;5047883;28;20037;-64
2024/03/16 07:52:34;;;;;;;34.22;18.38;;;;;;;;;;5032436;28;20120;-65
2024/03/16 07:55:00;;;;;;;33.53;17.65;;;;;;;;;;5032883;28;20472;-64
2024/03/16 07:57:27;;;;;;;30.38;17.92;;;;;;;;;;5030993;28;20052;-64
2024/03/16 07:59:52;;;;;;;42.45;20.20;;;;;;;;;;5032381;28;20497;-65
2024/03/16 08:02:18;;;;;;;35.78;18.23;;;;;;;;;;5032144;28;20033;-63
2024/03/16 08:04:44;;;;;;;39.05;19.70;;;;;;;;;;5031267;28;20152;-66
2024/03/16 08:07:09;;;;;;;35.88;17.50;;;;;;;;;;5019163;28;20494;-65
2024/03/16 08:09:35;;;;;;;32.42;17.75;;;;;;;;;;5029754;28;20449;-65
2024/03/16 08:12:02;;;;;;;36.60;18.40;;;;;;;;;;5032068;28;20415;-64
2024/03/16 08:14:34;;;;;;;32.47;18.88;;;;;;;;;;5032268;28;20590;-66
2024/03/16 08:17:03;;;;;;;31.95;17.45;;;;;;;;;;5031141;28;20042;-64
2024/03/16 08:19:29;;;;;;;36.67;19.17;;;;;;;;;;5030813;28;20047;-65
2024/03/16 08:21:54;;;;;;;37.85;18.27;;;;;;;;;;5032046;28;20547;-64
2024/03/16 08:24:21;;;;;;;34.10;18.70;;;;;;;;;;5031671;28;20129;-64
2024/03/16 08:26:46;;;;;;;37.42;18.50;;;;;;;;;;5031668;28;20123;-65
2024/03/16 08:29:12;;;;;;;33.08;18.05;;;;;;;;;;5031502;28;20116;-65
2024/03/16 08:31:38;;;;;;;36.05;17.88;;;;;;;;;;5030399;28;20041;-65
2024/03/16 08:34:03;;;;;;;32.45;16.88;;;;;;;;;;5063230;28;20037;-65
2024/03/16 08:36:29;;;;;;;35.13;17.60;;;;;;;;;;5022705;28;20037;-66
2024/03/16 08:38:54;;;;;;;38.92;18.67;;;;;;;;;;5029956;28;20470;-64
2024/03/16 08:41:20;;;;;;;36.88;18.38;;;;;;;;;;5030450;28;20090;-65
2024/03/16 08:43:45;;;;;;;32.63;18.25;;;;;;;;;;5030793;28;20049;-64
2024/03/16 08:46:11;;;;;;;33.35;17.98;;;;;;;;;;5030747;28;20037;-65
2024/03/16 08:48:37;;;;;;;33.20;18.42;;;;;;;;;;5030458;28;20048;-67
2024/03/16 08:51:04;;;;;;;31.40;17.38;;;;;;;;;;5028993;28;20453;-68
2024/03/16 08:53:30;;;;;;;34.05;19.08;;;;;;;;;;5030789;28;20037;-67
2024/03/16 08:55:58;;;;;;;35.38;17.15;;;;;;;;;;5030916;28;20083;-64
2024/03/16 08:58:27;;;;;;;38.20;18.30;;;;;;;;;;5029036;28;20075;-67
2024/03/16 09:00:58;;;;;;;29.13;17.87;;;;;;;;;;5031305;28;20033;-66
2024/03/16 09:03:24;;;;;;;37.88;17.73;;;;;;;;;;5029359;28;20045;-72
2024/03/16 09:05:49;;;;;;;32.78;17.52;;;;;;;;;;5030447;28;20372;-71
2024/03/16 09:08:15;;;;;;;37.30;18.60;;;;;;;;;;5030877;28;20514;-70
2024/03/16 09:10:41;;;;;;;37.40;18.05;;;;;;;;;;5030683;28;20487;-67
2024/03/16 09:13:06;;;;;;;38.20;18.17;;;;;;;;;;5030769;28;20398;-68
2024/03/16 09:15:33;;;;;;;35.40;17.48;;;;;;;;;;5027602;28;20132;-68
2024/03/16 09:17:59;;;;;;;33.22;18.30;;;;;;;;;;5028732;28;20033;-68
2024/03/16 09:20:24;;;;;;;34.22;17.75;;;;;;;;;;5029074;28;20045;-67
2024/03/16 09:22:52;;;;;;;30.40;17.42;;;;;;;;;;5028360;28;20068;-65
2024/03/16 09:25:20;;;;;;;37.22;19.10;;;;;;;;;;5028469;28;20041;-67
2024/03/16 09:27:46;;;;;;;31.90;18.92;;;;;;;;;;5009416;28;20037;-65
2024/03/16 09:30:12;;;;;;;36.67;17.50;;;;;;;;;;5018179;28;20099;-65
2024/03/16 09:32:37;;;;;;;32.40;17.63;;;;;;;;;;5020069;28;20116;-66
2024/03/16 09:35:07;;;;;;;38.33;17.05;;;;;;;;;;5028938;28;20250;-65
2024/03/16 09:37:32;;;;;;;36.83;18.67;;;;;;;;;;5029998;28;20037;-68
2024/03/16 09:39:58;;;;;;;37.00;18.42;;;;;;;;;;5031074;28;20056;-68
2024/03/16 09:42:24;;;;;;;36.13;20.00;;;;;;;;;;5030155;28;20434;-66
2024/03/16 09:44:49;;;;;;;34.38;18.00;;;;;;;;;;5030301;28;20120;-67
2024/03/16 09:47:23;;;;;;;32.65;17.95;;;;;;;;;;5030407;28;20037;-73
2024/03/16 09:49:49;;;;;;;35.33;17.98;;;;;;;;;;5029462;28;20068;-71
2024/03/16 09:52:16;;;;;;;32.70;17.70;;;;;;;;;;5027625;28;20030;-68
2024/03/16 09:54:42;;;;;;;33.97;17.73;;;;;;;;;;5011230;28;20041;-69
2024/03/16 09:57:17;;;;;;;33.95;17.65;;;;;;;;;;5028797;28;20037;-70
2024/03/16 09:59:49;;;;;;;31.42;16.95;;;;;;;;;;5029195;28;20499;-69
2024/03/16 10:02:17;;;;;;;34.47;16.80;;;;;;;;;;5032128;28;20064;-73
2024/03/16 10:04:42;;;;;;;32.72;17.13;;;;;;;;;;5033603;28;20033;-70
2024/03/16 10:07:08;;;;;;;31.15;17.58;;;;;;;;;;5034044;28;20033;-68
2024/03/16 10:09:33;;;;;;;32.88;17.75;;;;;;;;;;5033162;28;20367;-69
2024/03/16 10:12:07;;;;;;;33.72;17.67;;;;;;;;;;5031743;28;20410;-67
2024/03/16 10:14:33;;;;;;;38.60;18.92;;;;;;;;;;5031879;28;20038;-70
2024/03/16 10:17:01;;;;;;;30.42;17.02;;;;;;;;;;5031986;28;20087;-68
2024/03/16 10:19:27;;;;;;;38.42;19.05;;;;;;;;;;5014302;28;20049;-73
2024/03/16 10:21:53;;;;;;;33.45;16.83;;;;;;;;;;5033116;28;20033;-70
2024/03/16 10:24:20;;;;;;;31.42;17.17;;;;;;;;;;5032729;28;20099;-67
2024/03/16 10:26:47;;;;;;;35.60;16.75;;;;;;;;;;5016246;28;20065;-67
2024/03/16 10:29:15;;;;;;;31.85;16.92;;;;;;;;;;5034180;28;20095;-65
2024/03/16 10:31:41;;;;;;;34.13;15.93;;;;;;;;;;5032647;28;20510;-64
2024/03/16 10:34:07;;;;;;;32.42;16.48;;;;;;;;;;5034005;28;20084;-66
2024/03/16 10:36:34;;;;;;;31.55;16.90;;;;;;;;;;5033774;28;20151;-66
2024/03/16 10:39:01;;;;;;;31.35;16.35;;;;;;;;;;5032515;28;20037;-66
2024/03/16 10:41:28;;;;;;;29.92;16.15;;;;;;;;;;5039028;28;20079;-65
2024/03/16 10:43:55;;;;;;;31.15;16.10;;;;;;;;;;5018438;28;20037;-67
2024/03/16 10:46:20;;;;;;;27.98;15.93;;;;;;;;;;5033660;28;20124;-69
2024/03/16 10:48:46;;;;;;;28.65;15.00;;;;;;;;;;5032362;28;20041;-66
2024/03/16 10:51:15;;;;;;;27.98;15.38;;;;;;;;;;5034045;28;20030;-69
2024/03/16 10:53:41;;;;;;;29.10;15.00;;;;;;;;;;5033601;28;20038;-67
2024/03/16 10:56:06;;;;;;;28.90;17.30;;;;;;;;;;5033591;28;20040;-67
2024/03/16 10:58:32;;;;;;;28.73;15.52;;;;;;;;;;5033574;28;20081;-64
2024/03/16 11:01:03;;;;;;;26.63;14.55;;;;;;;;;;5032672;28;20033;-67
2024/03/16 11:03:32;;;;;;;25.65;14.73;;;;;;;;;;5031910;28;20052;-65
2024/03/16 11:06:01;;;;;;;37.78;14.93;;;;;;;;;;5033311;28;20065;-64
2024/03/16 11:08:33;;;;;;;25.58;13.70;;;;;;;;;;5033127;28;20475;-65
2024/03/16 11:10:59;;;;;;;25.23;14.25;;;;;;;;;;5032150;28;20033;-65
2024/03/16 11:13:25;;;;;;;24.10;13.15;;;;;;;;;;5032215;28;20132;-64
2024/03/16 11:15:51;;;;;;;21.65;12.23;;;;;;;;;;5031800;28;20025;-68
2024/03/16 11:18:19;;;;;;;21.23;12.48;;;;;;;;;;5031678;28;20107;-64
2024/03/16 11:20:50;;;;;;;22.23;12.20;;;;;;;;;;5033217;28;20037;-67
2024/03/16 11:23:30;;;;;;;24.35;12.25;;;;;;;;;;5032905;28;20506;-64
2024/03/16 11:26:15;;;;;;;31.08;14.00;;;;;;;;;;5031752;28;20557;-65
2024/03/16 11:28:44;;;;;;;27.23;12.95;;;;;;;;;;5031052;28;20037;-64
2024/03/16 11:31:28;;;;;;;25.02;12.70;;;;;;;;;;5033144;28;20398;-64
2024/03/16 11:33:54;;;;;;;21.42;12.05;;;;;;;;;;5032941;28;20072;-65
2024/03/16 11:36:19;;;;;;;21.92;11.93;;;;;;;;;;5038245;28;20037;-63
2024/03/16 11:38:51;;;;;;;23.40;12.70;;;;;;;;;;5031138;28;20463;-65
2024/03/16 11:41:18;;;;;;;24.02;11.85;;;;;;;;;;5032591;28;20397;-64
2024/03/16 11:43:44;;;;;;;21.90;11.93;;;;;;;;;;5032643;28;20046;-64
2024/03/16 11:46:10;;;;;;;21.88;11.38;;;;;;;;;;5032558;28;20038;-67
2024/03/16 11:48:39;;;;;;;21.75;12.73;;;;;;;;;;5031389;28;20118;-67
2024/03/16 11:51:05;;;;;;;18.27;11.68;;;;;;;;;;4998461;28;20120;-69
2024/03/16 11:53:31;;;;;;;36.80;21.17;;;;;;;;;;5032247;28;20459;-64
2024/03/16 11:55:56;;;;;;;24.55;13.07;;;;;;;;;;5031508;28;20506;-65
2024/03/16 11:58:22;;;;;;;23.02;12.05;;;;;;;;;;5031238;28;20108;-64
2024/03/16 12:00:48;;;;;;;21.45;12.05;;;;;;;;;;5032429;28;20034;-68
2024/03/16 12:03:14;;;;;;;19.70;11.73;;;;;;;;;;5031967;28;20048;-67
2024/03/16 12:05:39;;;;;;;21.70;12.18;;;;;;;;;;5031138;28;20033;-67
2024/03/16 12:08:05;;;;;;;23.27;12.55;;;;;;;;;;5032059;28;20542;-69
2024/03/16 12:10:33;;;;;;;23.75;12.43;;;;;;;;;;5032161;28;20116;-69
2024/03/16 12:13:00;;;;;;;21.98;11.90;;;;;;;;;;5032181;28;20045;-71
2024/03/16 12:15:27;;;;;;;21.90;12.27;;;;;;;;;;5031797;28;20127;-67
2024/03/16 12:17:54;;;;;;;19.02;11.15;;;;;;;;;;5026584;28;20052;-66
2024/03/16 12:20:20;;;;;;;22.40;11.40;;;;;;;;;;5032153;28;20041;-66
2024/03/16 12:22:50;;;;;;;20.52;11.18;;;;;;;;;;5030559;28;20049;-65
2024/03/16 12:25:16;;;;;;;30.95;17.25;;;;;;;;;;5030424;28;20038;-66
2024/03/16 12:27:45;;;;;;;21.90;10.57;;;;;;;;;;5030911;28;20041;-67
2024/03/16 12:30:12;;;;;;;21.92;11.15;;;;;;;;;;5030087;28;20045;-70
2024/03/16 12:32:39;;;;;;;24.92;11.18;;;;;;;;;;5029567;28;20060;-62
2024/03/16 12:35:06;;;;;;;19.10;10.85;;;;;;;;;;5029612;28;20053;-64
2024/03/16 12:37:38;;;;;;;26.42;11.73;;;;;;;;;;5031294;28;20120;-64
2024/03/16 12:40:03;;;;;;;21.58;10.82;;;;;;;;;;5032072;28;20038;-63
2024/03/16 12:42:30;;;;;;;16.35;10.75;;;;;;;;;;5031337;28;20076;-63
2024/03/16 12:44:57;;;;;;;24.45;12.90;;;;;;;;;;5030397;28;20076;-63
2024/03/16 12:47:23;;;;;;;20.88;10.25;;;;;;;;;;5031734;28;20493;-67
2024/03/16 12:49:48;;;;;;;21.33;11.82;;;;;;;;;;5031188;28;20053;-65
2024/03/16 12:52:14;;;;;;;19.88;10.07;;;;;;;;;;5031425;28;20442;-66
2024/03/16 12:54:40;;;;;;;22.20;10.57;;;;;;;;;;5031612;28;20398;-66
2024/03/16 12:57:09;;;;;;;20.63;10.50;;;;;;;;;;5030525;28;20483;-66
2024/03/16 12:59:37;;;;;;;18.20;9.43;;;;;;;;;;5029908;28;20047;-66
2024/03/16 13:02:03;;;;;;;21.17;9.15;;;;;;;;;;5029783;28;20449;-67
2024/03/16 13:04:29;;;;;;;16.38;9.52;;;;;;;;;;5029861;28;20041;-68
2024/03/16 13:06:54;;;;;;;20.40;10.30;;;;;;;;;;5031279;28;20464;-69
2024/03/16 13:09:20;;;;;;;20.77;9.02;;;;;;;;;;5031174;28;20123;-67
2024/03/16 13:11:47;;;;;;;18.90;8.77;;;;;;;;;;5013272;28;20131;-66
2024/03/16 13:14:13;;;;;;;17.45;8.75;;;;;;;;;;5013540;28;20073;-66
2024/03/16 13:16:39;;;;;;;16.00;9.23;;;;;;;;;;5029825;28;20437;-67
2024/03/16 13:19:06;;;;;;;18.40;9.02;;;;;;;;;;5030014;28;20060;-67
2024/03/16 13:21:32;;;;;;;18.98;9.05;;;;;;;;;;5031374;28;20066;-67
2024/03/16 13:23:59;;;;;;;17.65;8.90;;;;;;;;;;5029534;28;20425;-66
2024/03/16 13:26:27;;;;;;;15.98;7.97;;;;;;;;;;5031071;28;20048;-67
2024/03/16 13:28:53;;;;;;;21.55;8.85;;;;;;;;;;5031063;28;20355;-66
2024/03/16 13:31:18;;;;;;;16.02;8.63;;;;;;;;;;5029788;28;20044;-67
2024/03/16 13:33:44;;;;;;;16.33;9.02;;;;;;;;;;5029817;28;20406;-65
2024/03/16 13:36:09;;;;;;;19.98;8.40;;;;;;;;;;5032870;28;20477;-67
2024/03/16 13:38:36;;;;;;;17.05;8.32;;;;;;;;;;5033627;28;20037;-66
2024/03/16 13:41:02;;;;;;;16.77;8.60;;;;;;;;;;5034829;28;20087;-67
2024/03/16 13:43:28;;;;;;;15.68;8.70;;;;;;;;;;5034466;28;20069;-67
2024/03/16 13:45:53;;;;;;;17.92;8.48;;;;;;;;;;5034959;28;20030;-68
2024/03/16 13:48:19;;;;;;;28.35;8.60;;;;;;;;;;5035022;28;20051;-66
2024/03/16 13:50:47;;;;;;;13.60;7.15;;;;;;;;;;5016989;28;20499;-68
2024/03/16 13:53:12;;;;;;;20.85;8.45;;;;;;;;;;5034517;28;20025;-67
2024/03/16 13:55:38;;;;;;;19.65;7.47;;;;;;;;;;5033689;28;20544;-69
2024/03/16 13:58:04;;;;;;;12.80;7.65;;;;;;;;;;5034516;28;20453;-66
2024/03/16 14:00:33;;;;;;;19.00;7.28;;;;;;;;;;5035026;28;20038;-71
2024/03/16 14:03:00;;;;;;;15.93;7.82;;;;;;;;;;5033160;28;20075;-66
2024/03/16 14:05:29;;;;;;;21.80;8.07;;;;;;;;;;5033310;28;20045;-67
2024/03/16 14:07:55;;;;;;;18.50;7.90;;;;;;;;;;5033302;28;20060;-66
2024/03/16 14:10:20;;;;;;;21.40;7.85;;;;;;;;;;5032981;28;20507;-67
2024/03/16 14:12:50;;;;;;;16.73;7.63;;;;;;;;;;5034470;28;20048;-66
2024/03/16 14:15:19;;;;;;;20.67;7.53;;;;;;;;;;5034733;28;20142;-67
2024/03/16 14:17:45;;;;;;;16.08;7.20;;;;;;;;;;5034404;28;20038;-67